Time;durP1;ratioP1;P1;durP2;ratioP2;P2;SDS_P1;SDS_P2;PMS_P1;PMS_P2;Temp;Humidity;BMP_temperature;BMP_pressure;BME280_temperature;BME280_humidity;BME280_pressure;Samples;Min_cycle;Max_cycle;Signal;HPM_P1;HPM_P2
2022/10/22 00:02:06;;;;;;;13.40;7.35;;;13.50;99.90;;;;;;5055995;28;20041;-52
2022/10/22 00:04:33;;;;;;;9.52;7.30;;;13.50;99.90;;;;;;5058366;28;20036;-54
2022/10/22 00:06:58;;;;;;;9.45;7.38;;;13.50;99.90;;;;;;5058900;28;20089;-49
2022/10/22 00:09:24;;;;;;;9.80;7.15;;;13.50;99.90;;;;;;5060055;28;20040;-52
2022/10/22 00:11:50;;;;;;;10.48;6.85;;;13.40;99.90;;;;;;5059682;28;20041;-51
2022/10/22 00:14:16;;;;;;;9.13;6.97;;;13.40;99.90;;;;;;5059860;28;20045;-50
2022/10/22 00:16:41;;;;;;;7.57;6.65;;;13.30;99.90;;;;;;5054675;28;20048;-53
2022/10/22 00:19:08;;;;;;;8.82;6.85;;;13.30;99.90;;;;;;5059762;28;20044;-51
2022/10/22 00:21:34;;;;;;;11.88;6.60;;;13.30;99.90;;;;;;5057067;28;20131;-50
2022/10/22 00:24:00;;;;;;;10.07;6.78;;;13.40;99.90;;;;;;5059320;28;20120;-48
2022/10/22 00:26:26;;;;;;;9.20;6.70;;;13.30;99.90;;;;;;5056801;28;20202;-50
2022/10/22 00:28:52;;;;;;;8.82;6.72;;;13.40;99.90;;;;;;5055552;28;20072;-55
2022/10/22 00:31:19;;;;;;;12.02;6.40;;;13.40;99.90;;;;;;5058315;28;20048;-51
2022/10/22 00:33:46;;;;;;;8.55;6.75;;;13.40;99.90;;;;;;5053815;28;20387;-49
2022/10/22 00:36:12;;;;;;;9.07;7.15;;;13.40;99.90;;;;;;5054556;28;20095;-49
2022/10/22 00:38:38;;;;;;;8.45;7.03;;;13.40;99.90;;;;;;5058681;28;20052;-51
2022/10/22 00:41:04;;;;;;;8.40;7.30;;;13.30;99.90;;;;;;5055479;28;20049;-48
2022/10/22 00:43:30;;;;;;;9.73;7.78;;;13.20;99.90;;;;;;5054227;28;20043;-46
2022/10/22 00:45:55;;;;;;;8.57;6.90;;;13.40;99.90;;;;;;5058962;28;20035;-49
2022/10/22 00:48:30;;;;;;;10.38;6.82;;;13.40;99.90;;;;;;5054914;28;20044;-52
2022/10/22 00:51:03;;;;;;;8.57;7.15;;;13.30;99.90;;;;;;5054304;28;20049;-51
2022/10/22 00:53:34;;;;;;;12.02;7.35;;;13.30;99.90;;;;;;5056014;28;20055;-54
2022/10/22 00:56:00;;;;;;;9.52;7.28;;;13.30;99.90;;;;;;5060796;28;20045;-51
2022/10/22 00:58:32;;;;;;;9.73;6.65;;;13.20;99.90;;;;;;5053687;28;20042;-53
2022/10/22 01:00:58;;;;;;;10.02;7.32;;;13.20;99.90;;;;;;5054134;28;20052;-48
2022/10/22 01:03:24;;;;;;;11.35;7.10;;;13.20;99.90;;;;;;5059446;28;20052;-49
2022/10/22 01:05:56;;;;;;;9.93;6.72;;;13.20;99.90;;;;;;5057171;28;20044;-50
2022/10/22 01:08:54;;;;;;;8.25;6.45;;;13.10;99.90;;;;;;5059419;28;20520;-49
2022/10/22 01:11:33;;;;;;;8.48;6.82;;;13.10;99.90;;;;;;5058680;28;20053;-53
2022/10/22 01:14:04;;;;;;;12.10;7.13;;;13.10;99.90;;;;;;5059053;28;20044;-51
2022/10/22 01:16:50;;;;;;;7.85;6.57;;;13.00;99.90;;;;;;5058441;28;20055;-49
2022/10/22 01:19:34;;;;;;;8.15;6.70;;;13.00;99.90;;;;;;5056996;28;20045;-50
2022/10/22 01:22:31;;;;;;;11.05;7.47;;;13.00;99.90;;;;;;5057146;28;20040;-49
2022/10/22 01:25:09;;;;;;;9.18;6.70;;;12.90;99.90;;;;;;5056264;28;20057;-53
2022/10/22 01:27:50;;;;;;;9.23;6.47;;;12.90;99.90;;;;;;5059642;28;20063;-50
2022/10/22 01:30:17;;;;;;;10.35;7.00;;;12.90;99.90;;;;;;5062070;28;20052;-49
2022/10/22 01:32:50;;;;;;;10.38;7.38;;;12.80;99.90;;;;;;5059065;28;20044;-48
2022/10/22 01:35:26;;;;;;;12.65;7.53;;;12.80;99.90;;;;;;5057335;28;20301;-48
2022/10/22 01:37:55;;;;;;;8.85;6.93;;;12.80;99.90;;;;;;5059156;28;20409;-49
2022/10/22 01:40:22;;;;;;;7.40;6.70;;;12.80;99.90;;;;;;5057107;28;20086;-53
2022/10/22 01:43:02;;;;;;;9.52;6.93;;;12.70;99.90;;;;;;5056507;28;20036;-48
2022/10/22 01:45:32;;;;;;;9.50;7.30;;;12.80;99.90;;;;;;5055064;28;20076;-47
2022/10/22 01:48:25;;;;;;;10.57;7.63;;;12.70;99.90;;;;;;5053818;28;20048;-49
2022/10/22 01:51:06;;;;;;;13.27;7.53;;;12.80;99.90;;;;;;5057440;28;20493;-47
2022/10/22 01:53:44;;;;;;;13.35;7.65;;;12.80;99.90;;;;;;5054431;28;20560;-51
2022/10/22 01:56:35;;;;;;;14.43;7.90;;;12.70;99.90;;;;;;5058679;28;20044;-50
2022/10/22 01:59:15;;;;;;;8.52;7.63;;;12.70;99.90;;;;;;5053642;28;20056;-53
2022/10/22 02:02:16;;;;;;;14.00;8.45;;;12.70;99.90;;;;;;5056542;28;20542;-51
2022/10/22 02:04:51;;;;;;;9.43;7.60;;;12.60;99.90;;;;;;5056003;28;20107;-55
2022/10/22 02:07:20;;;;;;;10.52;7.88;;;12.60;99.90;;;;;;5055560;28;20045;-49
2022/10/22 02:09:48;;;;;;;10.18;8.27;;;12.60;99.90;;;;;;5036115;28;20113;-50
2022/10/22 02:12:16;;;;;;;10.30;8.30;;;12.60;99.90;;;;;;5058068;28;20037;-51
2022/10/22 02:14:43;;;;;;;12.77;8.90;;;12.60;99.90;;;;;;5059933;28;20471;-53
2022/10/22 02:17:14;;;;;;;10.85;9.48;;;12.60;99.90;;;;;;5061747;28;20063;-50
2022/10/22 02:19:57;;;;;;;12.00;9.40;;;12.60;99.90;;;;;;5064109;28;20041;-52
2022/10/22 02:22:25;;;;;;;12.55;9.57;;;12.60;99.90;;;;;;5056572;28;20049;-50
2022/10/22 02:24:50;;;;;;;12.57;9.30;;;12.60;99.90;;;;;;5064720;28;20082;-52
2022/10/22 02:27:21;;;;;;;12.93;9.65;;;12.50;99.90;;;;;;5065824;28;20037;-53
2022/10/22 02:30:07;;;;;;;13.10;8.95;;;12.60;99.90;;;;;;5063448;28;20052;-50
2022/10/22 02:32:49;;;;;;;15.10;10.00;;;12.50;99.90;;;;;;5062989;28;20486;-51
2022/10/22 02:35:20;;;;;;;15.07;9.48;;;12.50;99.90;;;;;;5061740;28;20386;-53
2022/10/22 02:37:46;;;;;;;13.85;9.77;;;12.40;99.90;;;;;;5056940;28;20045;-52
2022/10/22 02:40:12;;;;;;;14.00;9.80;;;12.40;99.90;;;;;;5064062;28;20040;-50
2022/10/22 02:42:42;;;;;;;12.88;9.85;;;12.40;99.90;;;;;;5057381;28;20089;-51
2022/10/22 02:45:08;;;;;;;10.43;9.38;;;12.40;99.90;;;;;;5060592;28;20139;-52
2022/10/22 02:47:34;;;;;;;13.40;9.93;;;12.40;99.90;;;;;;5060167;28;20028;-52
2022/10/22 02:49:59;;;;;;;13.77;10.15;;;12.40;99.90;;;;;;5055912;28;20035;-50
2022/10/22 02:52:25;;;;;;;12.57;9.75;;;12.40;99.90;;;;;;5062588;28;20052;-49
2022/10/22 02:54:51;;;;;;;13.23;10.52;;;12.30;99.90;;;;;;5058537;28;20076;-48
2022/10/22 02:57:16;;;;;;;16.02;10.45;;;12.40;99.90;;;;;;5056065;28;20520;-51
2022/10/22 02:59:42;;;;;;;14.27;10.75;;;12.40;99.90;;;;;;5061050;28;20045;-50
2022/10/22 03:02:07;;;;;;;12.80;10.35;;;12.40;99.90;;;;;;5059439;28;20036;-48
2022/10/22 03:04:34;;;;;;;16.20;10.82;;;12.50;99.90;;;;;;5057539;28;20040;-49
2022/10/22 03:07:00;;;;;;;13.38;10.30;;;12.50;99.90;;;;;;5064753;28;20482;-52
2022/10/22 03:09:25;;;;;;;14.98;11.07;;;12.50;99.90;;;;;;5059570;28;20100;-53
2022/10/22 03:11:51;;;;;;;13.05;9.82;;;12.50;99.90;;;;;;5061486;28;20040;-49
2022/10/22 03:14:17;;;;;;;13.32;10.13;;;12.50;99.90;;;;;;5059804;28;20071;-47
2022/10/22 03:16:42;;;;;;;15.57;10.63;;;12.50;99.90;;;;;;5057756;28;20037;-49
2022/10/22 03:19:08;;;;;;;16.58;11.30;;;12.40;99.90;;;;;;5064082;28;20047;-51
2022/10/22 03:21:39;;;;;;;14.82;11.00;;;12.50;99.90;;;;;;5057988;28;21016;-55
2022/10/22 03:24:11;;;;;;;14.43;10.88;;;12.40;99.90;;;;;;5055170;28;20040;-50
2022/10/22 03:26:38;;;;;;;14.65;10.05;;;12.40;99.90;;;;;;5057704;28;20817;-51
2022/10/22 03:29:04;;;;;;;13.20;8.90;;;12.40;99.90;;;;;;5058553;28;20044;-48
2022/10/22 03:31:30;;;;;;;17.05;9.70;;;12.40;99.90;;;;;;5056499;28;20652;-51
2022/10/22 03:33:56;;;;;;;17.17;10.10;;;12.30;99.90;;;;;;5056707;28;20041;-52
2022/10/22 03:36:21;;;;;;;12.57;9.82;;;12.30;99.90;;;;;;5061066;28;20667;-51
2022/10/22 03:38:47;;;;;;;14.60;10.10;;;12.30;99.90;;;;;;5055917;28;20041;-51
2022/10/22 03:41:13;;;;;;;14.15;10.02;;;12.20;99.90;;;;;;5059680;28;20091;-52
2022/10/22 03:43:39;;;;;;;15.55;10.63;;;12.20;99.90;;;;;;5061891;28;20411;-52
2022/10/22 03:46:05;;;;;;;15.02;10.15;;;12.20;99.90;;;;;;5059856;28;20054;-49
2022/10/22 03:48:31;;;;;;;15.35;11.20;;;12.30;99.90;;;;;;5059825;28;20049;-47
2022/10/22 03:50:57;;;;;;;16.35;11.52;;;12.30;99.90;;;;;;5055798;28;20052;-50
2022/10/22 03:53:23;;;;;;;15.50;11.35;;;12.30;99.90;;;;;;5057002;28;20048;-51
2022/10/22 03:55:48;;;;;;;17.17;11.70;;;12.40;99.90;;;;;;5060170;28;20044;-51
2022/10/22 03:58:14;;;;;;;18.77;11.13;;;12.40;99.90;;;;;;5055755;28;20036;-51
2022/10/22 04:00:40;;;;;;;13.70;10.75;;;12.30;99.90;;;;;;5059215;28;20043;-51
2022/10/22 04:03:05;;;;;;;15.20;10.40;;;12.30;99.90;;;;;;5058574;28;20687;-53
2022/10/22 04:05:32;;;;;;;15.15;11.50;;;12.30;99.90;;;;;;5060672;28;20040;-48
2022/10/22 04:07:58;;;;;;;14.93;11.30;;;12.40;99.90;;;;;;5060790;28;20515;-50
2022/10/22 04:10:24;;;;;;;14.88;10.60;;;12.40;99.90;;;;;;5058800;28;20037;-49
2022/10/22 04:12:50;;;;;;;17.85;11.05;;;12.30;99.90;;;;;;5060840;28;20392;-51
2022/10/22 04:15:16;;;;;;;17.42;11.50;;;12.20;99.90;;;;;;5059899;28;20049;-48
2022/10/22 04:17:42;;;;;;;20.75;12.25;;;12.40;99.90;;;;;;5063287;28;20064;-52
2022/10/22 04:20:09;;;;;;;18.33;11.10;;;12.30;99.90;;;;;;5064982;28;20665;-53
2022/10/22 04:22:35;;;;;;;17.45;11.38;;;12.30;99.90;;;;;;5058846;28;20040;-52
2022/10/22 04:25:01;;;;;;;16.30;10.95;;;12.30;99.90;;;;;;5060357;28;20068;-51
2022/10/22 04:27:31;;;;;;;16.60;11.23;;;12.30;99.90;;;;;;5059659;28;20036;-51
2022/10/22 04:29:57;;;;;;;15.70;11.40;;;12.30;99.90;;;;;;5060292;28;20036;-50
2022/10/22 04:32:24;;;;;;;17.83;11.55;;;12.20;99.90;;;;;;5057623;28;20055;-51
2022/10/22 04:34:49;;;;;;;17.25;11.50;;;12.30;99.90;;;;;;5058244;28;20594;-52
2022/10/22 04:37:15;;;;;;;14.00;11.23;;;12.20;99.90;;;;;;5060202;28;20048;-48
2022/10/22 04:39:40;;;;;;;15.73;11.65;;;12.30;99.90;;;;;;5060083;28;20040;-52
2022/10/22 04:42:06;;;;;;;19.92;11.98;;;12.30;99.90;;;;;;5060431;28;20044;-51
2022/10/22 04:44:32;;;;;;;14.43;11.20;;;12.20;99.90;;;;;;5058655;28;20388;-51
2022/10/22 04:46:57;;;;;;;20.58;12.27;;;12.20;99.90;;;;;;5058731;28;20040;-49
2022/10/22 04:49:23;;;;;;;16.30;11.32;;;12.30;99.90;;;;;;5060378;28;20127;-47
2022/10/22 04:51:49;;;;;;;17.83;12.15;;;12.20;99.90;;;;;;5057620;28;20591;-49
2022/10/22 04:54:14;;;;;;;17.20;11.98;;;12.20;99.90;;;;;;5057350;28;20067;-48
2022/10/22 04:56:40;;;;;;;16.33;11.75;;;12.20;99.90;;;;;;5059562;28;20040;-52
2022/10/22 04:59:07;;;;;;;18.52;11.88;;;12.10;99.90;;;;;;5060597;28;20028;-50
2022/10/22 05:01:37;;;;;;;19.55;12.43;;;12.10;99.90;;;;;;5057922;28;20037;-48
2022/10/22 05:04:04;;;;;;;16.92;11.63;;;12.20;99.90;;;;;;5059522;28;20667;-51
2022/10/22 05:06:31;;;;;;;17.25;12.00;;;12.20;99.90;;;;;;5050635;28;20073;-50
2022/10/22 05:09:00;;;;;;;19.83;12.80;;;12.30;99.90;;;;;;5059122;28;20478;-49
2022/10/22 05:11:29;;;;;;;16.63;11.93;;;12.20;99.90;;;;;;5061267;28;20032;-51
2022/10/22 05:13:56;;;;;;;17.40;12.20;;;12.20;99.90;;;;;;5059414;28;20060;-51
2022/10/22 05:16:23;;;;;;;21.65;12.65;;;12.20;99.90;;;;;;5058581;28;20101;-47
2022/10/22 05:18:48;;;;;;;19.70;12.27;;;12.20;99.90;;;;;;5059072;28;20067;-48
2022/10/22 05:21:17;;;;;;;18.70;11.82;;;12.30;99.90;;;;;;5056156;28;20443;-51
2022/10/22 05:23:44;;;;;;;18.60;12.27;;;12.30;99.90;;;;;;5055624;28;20049;-50
2022/10/22 05:26:11;;;;;;;18.90;12.15;;;12.40;99.90;;;;;;5059058;28;20453;-52
2022/10/22 05:28:38;;;;;;;20.55;12.30;;;12.40;99.90;;;;;;5057506;28;20045;-49
2022/10/22 05:31:05;;;;;;;18.13;12.82;;;12.40;99.90;;;;;;5056399;28;20048;-53
2022/10/22 05:33:32;;;;;;;21.08;12.65;;;12.50;99.90;;;;;;5055611;28;20092;-49
2022/10/22 05:35:58;;;;;;;19.50;12.40;;;12.50;99.90;;;;;;5061452;28;20486;-50
2022/10/22 05:38:24;;;;;;;18.88;11.90;;;12.50;99.90;;;;;;5058016;28;20401;-52
2022/10/22 05:41:04;;;;;;;19.88;11.52;;;12.50;99.90;;;;;;5051070;28;20430;-51
2022/10/22 05:43:30;;;;;;;20.95;11.98;;;12.60;99.90;;;;;;5052784;28;20036;-54
2022/10/22 05:45:59;;;;;;;18.50;11.25;;;12.70;99.90;;;;;;5059235;28;20052;-53
2022/10/22 05:48:25;;;;;;;16.33;10.98;;;12.60;99.90;;;;;;5058669;28;20128;-51
2022/10/22 05:50:50;;;;;;;14.65;10.40;;;12.60;99.90;;;;;;5063448;28;20131;-52
2022/10/22 05:53:17;;;;;;;20.73;11.63;;;12.60;99.90;;;;;;5061912;28;20045;-49
2022/10/22 05:55:43;;;;;;;16.75;11.18;;;12.60;99.90;;;;;;5060488;28;20083;-49
2022/10/22 05:58:10;;;;;;;16.80;10.75;;;12.60;99.90;;;;;;5060939;28;20451;-48
2022/10/22 06:00:36;;;;;;;17.30;11.45;;;12.60;99.90;;;;;;5059640;28;20033;-51
2022/10/22 06:03:02;;;;;;;19.35;11.77;;;12.70;99.90;;;;;;5057883;28;20048;-51
2022/10/22 06:05:27;;;;;;;18.30;11.93;;;12.60;99.90;;;;;;5055655;28;20028;-49
2022/10/22 06:07:54;;;;;;;16.25;11.05;;;12.70;99.90;;;;;;5059535;28;20037;-48
2022/10/22 06:10:21;;;;;;;23.23;11.27;;;12.60;99.90;;;;;;5058524;28;20048;-53
2022/10/22 06:12:47;;;;;;;18.30;11.63;;;12.60;99.90;;;;;;5057860;28;20374;-55
2022/10/22 06:15:15;;;;;;;18.73;11.35;;;12.60;99.90;;;;;;5064255;28;20037;-49
2022/10/22 06:17:42;;;;;;;16.90;11.45;;;12.50;99.90;;;;;;5061994;28;20505;-49
2022/10/22 06:20:08;;;;;;;19.48;11.70;;;12.60;99.90;;;;;;5060049;28;20479;-48
2022/10/22 06:22:34;;;;;;;20.02;11.45;;;12.70;99.90;;;;;;5062473;28;20051;-50
2022/10/22 06:25:00;;;;;;;20.27;11.63;;;12.70;99.90;;;;;;5062776;28;20044;-51
2022/10/22 06:27:25;;;;;;;18.83;11.00;;;12.70;99.90;;;;;;5056388;28;20447;-50
2022/10/22 06:29:51;;;;;;;20.58;10.85;;;12.70;99.90;;;;;;5065219;28;20045;-53
2022/10/22 06:32:16;;;;;;;20.88;11.40;;;12.80;99.90;;;;;;5060071;28;20032;-49
2022/10/22 06:34:42;;;;;;;19.80;11.38;;;12.70;99.90;;;;;;5063805;28;20064;-54
2022/10/22 06:37:09;;;;;;;20.13;10.85;;;12.80;99.90;;;;;;5058717;28;20040;-49
2022/10/22 06:39:34;;;;;;;15.27;10.88;;;12.80;99.90;;;;;;5057244;28;20649;-51
2022/10/22 06:42:00;;;;;;;23.10;11.57;;;12.80;99.90;;;;;;5055305;28;20040;-49
2022/10/22 06:44:25;;;;;;;21.25;10.40;;;12.80;99.90;;;;;;5061492;28;20417;-50
2022/10/22 06:46:52;;;;;;;19.15;10.65;;;12.80;99.90;;;;;;5059927;28;20406;-50
2022/10/22 06:49:20;;;;;;;15.93;10.30;;;12.80;99.90;;;;;;5060918;28;20036;-52
2022/10/22 06:51:49;;;;;;;13.15;9.45;;;12.90;99.90;;;;;;5058551;28;20117;-50
2022/10/22 06:54:15;;;;;;;13.85;10.38;;;13.00;99.90;;;;;;5058656;28;20429;-50
2022/10/22 06:56:40;;;;;;;14.77;9.65;;;13.00;99.90;;;;;;5056939;28;20041;-50
2022/10/22 06:59:06;;;;;;;17.30;9.82;;;13.00;99.90;;;;;;5058085;28;20049;-53
2022/10/22 07:01:34;;;;;;;13.98;9.73;;;13.20;99.90;;;;;;5058029;28;20624;-48
2022/10/22 07:04:00;;;;;;;12.95;8.93;;;13.40;99.90;;;;;;5060220;28;20051;-52
2022/10/22 07:06:27;;;;;;;15.45;9.15;;;13.10;99.90;;;;;;5059986;28;20082;-49
2022/10/22 07:08:54;;;;;;;14.40;9.30;;;13.20;99.90;;;;;;5060248;28;20051;-54
2022/10/22 07:11:29;;;;;;;11.15;8.43;;;13.30;99.90;;;;;;5056699;28;20364;-54
2022/10/22 07:13:57;;;;;;;17.10;8.95;;;13.20;99.90;;;;;;5062369;28;20060;-50
2022/10/22 07:16:23;;;;;;;17.17;8.88;;;13.40;99.90;;;;;;5059431;28;20051;-51
2022/10/22 07:18:50;;;;;;;14.75;9.27;;;13.50;99.90;;;;;;5058982;28;20360;-50
2022/10/22 07:21:17;;;;;;;13.90;8.25;;;13.70;99.90;;;;;;5061350;28;20051;-49
2022/10/22 07:23:43;;;;;;;11.65;7.80;;;13.60;99.90;;;;;;5061484;28;20563;-48
2022/10/22 07:26:12;;;;;;;16.92;8.48;;;13.80;99.90;;;;;;5057451;28;20625;-50
2022/10/22 07:28:39;;;;;;;14.45;7.95;;;13.90;99.90;;;;;;5055310;28;20080;-50
2022/10/22 07:31:06;;;;;;;15.13;7.93;;;13.90;99.90;;;;;;5062392;28;20420;-48
2022/10/22 07:33:32;;;;;;;12.70;8.18;;;14.10;99.90;;;;;;5062900;28;20123;-49
2022/10/22 07:35:59;;;;;;;15.02;7.10;;;14.10;99.90;;;;;;5063343;28;20140;-51
2022/10/22 07:38:26;;;;;;;10.88;7.20;;;14.20;99.90;;;;;;5068456;28;20044;-51
2022/10/22 07:40:52;;;;;;;14.00;7.70;;;14.30;99.90;;;;;;5060063;28;20779;-51
2022/10/22 07:43:17;;;;;;;14.07;7.15;;;14.30;99.90;;;;;;5059415;28;20130;-52
2022/10/22 07:45:44;;;;;;;16.00;7.10;;;14.30;99.90;;;;;;5068547;28;22734;-48
2022/10/22 07:48:09;;;;;;;13.55;6.85;;;14.30;99.90;;;;;;5063691;28;20048;-52
2022/10/22 07:50:35;;;;;;;12.98;7.43;;;14.30;99.90;;;;;;5062726;28;20052;-52
2022/10/22 07:53:00;;;;;;;11.80;7.05;;;14.50;99.90;;;;;;5066147;28;20398;-53
2022/10/22 07:55:26;;;;;;;13.98;6.70;;;14.40;99.90;;;;;;5071051;28;20048;-51
2022/10/22 07:57:52;;;;;;;13.57;7.45;;;14.50;99.90;;;;;;5064984;28;20105;-50
2022/10/22 08:00:17;;;;;;;14.88;7.30;;;14.30;99.90;;;;;;5052353;28;20040;-50
2022/10/22 08:02:43;;;;;;;11.07;7.18;;;14.40;99.90;;;;;;5064946;28;20037;-51
2022/10/22 08:05:09;;;;;;;14.13;6.65;;;14.30;99.90;;;;;;5057435;28;20041;-51
2022/10/22 08:07:34;;;;;;;10.80;6.78;;;14.30;99.90;;;;;;5055800;28;20048;-54
2022/10/22 08:10:00;;;;;;;10.52;6.97;;;14.40;99.90;;;;;;5059176;28;20441;-51
2022/10/22 08:12:25;;;;;;;10.50;6.88;;;14.40;99.90;;;;;;5065579;28;20037;-52
2022/10/22 08:14:51;;;;;;;13.10;7.43;;;14.40;99.90;;;;;;5063564;28;20048;-51
2022/10/22 08:17:17;;;;;;;14.65;7.35;;;14.20;99.90;;;;;;5048871;28;20438;-51
2022/10/22 08:19:42;;;;;;;15.50;7.50;;;14.30;99.90;;;;;;5056230;28;20041;-54
2022/10/22 08:22:08;;;;;;;12.27;6.93;;;14.40;99.90;;;;;;5061867;28;20039;-53
2022/10/22 08:24:34;;;;;;;10.00;7.03;;;14.50;99.90;;;;;;5068289;28;20409;-52
2022/10/22 08:26:59;;;;;;;20.23;7.53;;;14.40;99.90;;;;;;5063190;28;20428;-52
2022/10/22 08:29:25;;;;;;;17.38;7.28;;;14.50;99.90;;;;;;5064157;28;20047;-51
2022/10/22 08:31:52;;;;;;;13.02;6.82;;;14.40;99.90;;;;;;5062359;28;20047;-50
2022/10/22 08:34:18;;;;;;;11.52;6.57;;;14.60;99.90;;;;;;5038724;28;20477;-48
2022/10/22 08:36:45;;;;;;;11.63;5.82;;;14.70;99.90;;;;;;5056614;28;20119;-48
2022/10/22 08:39:10;;;;;;;11.07;5.97;;;14.80;99.90;;;;;;5058416;28;20110;-50
2022/10/22 08:41:44;;;;;;;10.32;6.03;;;;;;;;;;5067146;28;20040;-49
2022/10/22 08:44:24;;;;;;;11.65;6.05;;;14.90;99.90;;;;;;5061761;28;20086;-50
2022/10/22 08:47:17;;;;;;;13.27;6.05;;;15.10;99.90;;;;;;5054498;28;20044;-50
2022/10/22 08:49:43;;;;;;;9.18;5.60;;;15.10;99.90;;;;;;5060011;28;20077;-50
2022/10/22 08:52:16;;;;;;;10.35;6.13;;;15.20;99.90;;;;;;5058198;28;20458;-53
2022/10/22 08:54:41;;;;;;;15.20;6.55;;;15.30;99.90;;;;;;5059141;28;20044;-52
2022/10/22 08:57:21;;;;;;;14.75;6.50;;;15.40;99.90;;;;;;5065187;28;20513;-53
2022/10/22 09:00:28;;;;;;;8.38;5.65;;;15.40;99.90;;;;;;5065016;28;20044;-51
2022/10/22 09:03:27;;;;;;;13.10;5.88;;;15.50;99.90;;;;;;5053408;28;20086;-56
2022/10/22 09:06:07;;;;;;;10.40;5.88;;;15.50;99.90;;;;;;5064464;28;20036;-52
2022/10/22 09:08:35;;;;;;;11.82;5.00;;;15.70;99.90;;;;;;5058161;28;20102;-51
2022/10/22 09:11:23;;;;;;;14.80;5.63;;;15.70;99.90;;;;;;5062744;28;20048;-52
2022/10/22 09:13:50;;;;;;;9.88;5.35;;;15.70;99.90;;;;;;5060300;28;20067;-52
2022/10/22 09:16:20;;;;;;;8.90;5.30;;;15.80;99.90;;;;;;5066456;28;20090;-51
2022/10/22 09:18:49;;;;;;;12.00;5.38;;;16.00;99.90;;;;;;5066369;28;20047;-51
2022/10/22 09:21:25;;;;;;;13.05;4.88;;;16.10;99.90;;;;;;5060777;28;20047;-54
2022/10/22 09:24:08;;;;;;;11.60;4.57;;;16.10;99.90;;;;;;5064820;28;20044;-50
2022/10/22 09:26:37;;;;;;;9.25;4.55;;;16.20;99.90;;;;;;5057728;28;20051;-52
2022/10/22 09:29:03;;;;;;;11.38;4.80;;;16.20;99.90;;;;;;5054410;28;20085;-53
2022/10/22 09:31:30;;;;;;;11.68;4.18;;;16.20;99.90;;;;;;5062512;28;20119;-52
2022/10/22 09:33:58;;;;;;;15.82;4.85;;;16.30;99.90;;;;;;5057090;28;20063;-53
2022/10/22 09:36:24;;;;;;;8.18;3.92;;;16.30;99.90;;;;;;5056334;28;20045;-52
2022/10/22 09:38:52;;;;;;;8.02;3.80;;;16.30;99.90;;;;;;5059587;28;20048;-50
2022/10/22 09:41:21;;;;;;;8.93;4.05;;;16.20;99.90;;;;;;5061772;28;21440;-53
2022/10/22 09:43:48;;;;;;;9.73;3.90;;;16.20;99.90;;;;;;5060650;28;20060;-52
2022/10/22 09:46:17;;;;;;;10.48;4.13;;;16.20;99.90;;;;;;5061959;28;20040;-52
2022/10/22 09:49:12;;;;;;;12.85;4.05;;;16.20;99.90;;;;;;5054888;28;21697;-52
2022/10/22 09:51:46;;;;;;;8.32;4.05;;;16.20;99.90;;;;;;5060011;28;20420;-51
2022/10/22 09:54:24;;;;;;;10.95;3.60;;;16.20;99.90;;;;;;5059396;28;20131;-49
2022/10/22 09:56:56;;;;;;;10.85;4.03;;;16.30;99.90;;;;;;5056794;28;20049;-49
2022/10/22 09:59:36;;;;;;;8.57;3.45;;;16.30;99.90;;;;;;5055507;28;20441;-53
2022/10/22 10:02:18;;;;;;;12.82;3.72;;;16.30;99.90;;;;;;5059991;28;20052;-53
2022/10/22 10:04:55;;;;;;;14.63;4.40;;;16.20;99.90;;;;;;5056062;28;20167;-50
2022/10/22 10:07:23;;;;;;;12.13;3.55;;;16.20;99.90;;;;;;5060415;28;20040;-52
2022/10/22 10:09:50;;;;;;;13.02;3.20;;;16.10;99.90;;;;;;5054635;28;20516;-51
2022/10/22 10:12:37;;;;;;;12.10;4.10;;;16.10;99.90;;;;;;5054960;28;20097;-50
2022/10/22 10:15:18;;;;;;;11.13;3.85;;;16.10;99.90;;;;;;5060064;28;20300;-50
2022/10/22 10:18:01;;;;;;;9.68;3.60;;;16.10;99.90;;;;;;5054304;28;20048;-51
2022/10/22 10:20:52;;;;;;;11.68;3.88;;;16.10;99.90;;;;;;5061036;28;20045;-53
2022/10/22 10:23:29;;;;;;;14.02;3.75;;;16.10;99.90;;;;;;5062193;28;20036;-54
2022/10/22 10:26:10;;;;;;;;;;;16.10;99.90;;;;;;5068896;28;20368;-51
2022/10/22 10:29:05;;;;;;;10.00;3.40;;;16.10;99.90;;;;;;5067814;28;20400;-52
2022/10/22 10:31:56;;;;;;;11.52;3.67;;;16.10;99.90;;;;;;5056563;28;20185;-53
2022/10/22 10:34:41;;;;;;;13.98;3.90;;;16.10;99.90;;;;;;5063057;28;20434;-52
2022/10/22 10:37:23;;;;;;;10.88;3.70;;;16.10;99.90;;;;;;5066964;28;20048;-54
2022/10/22 10:40:22;;;;;;;12.02;3.70;;;16.10;99.90;;;;;;5060684;28;20059;-52
2022/10/22 10:42:54;;;;;;;10.90;4.10;;;16.20;99.90;;;;;;5065844;28;20044;-51
2022/10/22 10:45:51;;;;;;;12.90;3.90;;;16.20;99.90;;;;;;5067441;28;21234;-54
2022/10/22 10:48:32;;;;;;;11.18;3.78;;;16.20;99.90;;;;;;5063473;28;20041;-54
2022/10/22 10:51:07;;;;;;;7.43;3.22;;;16.30;99.90;;;;;;5068812;28;20051;-52
2022/10/22 10:53:44;;;;;;;8.98;4.18;;;16.40;99.90;;;;;;5057732;28;20051;-53
2022/10/22 10:56:16;;;;;;;10.05;4.47;;;16.20;99.90;;;;;;5059001;28;20052;-50
2022/10/22 10:59:12;;;;;;;7.15;3.78;;;16.20;99.90;;;;;;5061860;28;20098;-52
2022/10/22 11:01:59;;;;;;;12.52;4.57;;;16.10;99.90;;;;;;5067528;28;20040;-51
2022/10/22 11:04:40;;;;;;;8.15;4.13;;;16.20;99.90;;;;;;5059865;28;20094;-48
2022/10/22 11:07:10;;;;;;;11.73;4.35;;;16.30;99.90;;;;;;5067737;28;20044;-50
2022/10/22 11:09:51;;;;;;;9.73;3.80;;;16.40;99.90;;;;;;5068554;28;20048;-53
2022/10/22 11:12:29;;;;;;;10.38;4.05;;;16.50;99.90;;;;;;5065956;28;22457;-52
2022/10/22 11:14:57;;;;;;;12.02;4.00;;;16.40;99.90;;;;;;5067087;28;20052;-53
2022/10/22 11:17:25;;;;;;;9.60;4.35;;;16.40;99.90;;;;;;5068755;28;20051;-52
2022/10/22 11:20:03;;;;;;;;;;;16.50;99.90;;;;;;5069900;28;20044;-50
2022/10/22 11:22:37;;;;;;;9.38;4.85;;;16.50;99.90;;;;;;5064237;28;19920;-54
2022/10/22 11:25:11;;;;;;;11.75;4.45;;;16.60;99.90;;;;;;5067999;28;20376;-51
2022/10/22 11:27:43;;;;;;;12.85;4.40;;;16.70;99.90;;;;;;5060721;28;20041;-53
2022/10/22 11:30:31;;;;;;;15.35;4.85;;;16.70;99.90;;;;;;5062825;28;20377;-56
2022/10/22 11:33:00;;;;;;;7.25;4.30;;;16.70;99.90;;;;;;5064577;28;20047;-54
2022/10/22 11:35:30;;;;;;;10.55;4.55;;;16.70;99.90;;;;;;5058886;28;20039;-55
2022/10/22 11:37:56;;;;;;;10.55;4.97;;;16.70;99.90;;;;;;5059346;28;20035;-54
2022/10/22 11:40:34;;;;;;;11.50;4.78;;;16.70;99.90;;;;;;5065827;28;20043;-52
2022/10/22 11:43:18;;;;;;;11.15;4.38;;;16.60;99.90;;;;;;5064010;28;20095;-55
2022/10/22 11:45:55;;;;;;;9.38;4.95;;;16.60;99.90;;;;;;5065432;28;20119;-56
2022/10/22 11:48:26;;;;;;;8.02;4.40;;;16.70;99.90;;;;;;5067320;28;20381;-54
2022/10/22 11:51:01;;;;;;;10.85;4.60;;;16.80;99.90;;;;;;5065112;28;20045;-55
2022/10/22 11:53:37;;;;;;;11.55;4.40;;;16.90;99.90;;;;;;5068662;28;20040;-53
2022/10/22 11:56:23;;;;;;;9.77;4.40;;;16.90;99.90;;;;;;5065595;28;20548;-54
2022/10/22 11:58:49;;;;;;;10.50;4.15;;;16.90;99.90;;;;;;5068653;28;20055;-54
2022/10/22 12:01:29;;;;;;;10.38;4.35;;;16.90;99.90;;;;;;5067169;28;20053;-55
2022/10/22 12:03:57;;;;;;;7.80;3.83;;;16.80;99.90;;;;;;5059780;28;20044;-56
2022/10/22 12:06:27;;;;;;;9.35;4.05;;;17.00;99.90;;;;;;5062051;28;20436;-55
2022/10/22 12:08:53;;;;;;;11.13;3.75;;;17.10;99.90;;;;;;5061439;28;20044;-57
2022/10/22 12:11:38;;;;;;;7.47;3.90;;;17.20;99.90;;;;;;5061605;28;20055;-54
2022/10/22 12:14:25;;;;;;;9.98;4.30;;;17.30;99.90;;;;;;5057679;28;20043;-55
2022/10/22 12:17:12;;;;;;;10.75;3.90;;;17.40;99.90;;;;;;5061894;28;20055;-53
2022/10/22 12:19:42;;;;;;;10.50;3.72;;;17.40;99.90;;;;;;5055965;28;20461;-56
2022/10/22 12:22:16;;;;;;;9.90;3.42;;;17.40;99.90;;;;;;5054998;28;20033;-54
2022/10/22 12:24:46;;;;;;;7.55;3.10;;;17.40;99.90;;;;;;5059794;28;20072;-55
2022/10/22 12:27:21;;;;;;;8.52;3.40;;;17.40;99.90;;;;;;5058094;28;20478;-54
2022/10/22 12:29:47;;;;;;;14.55;4.30;;;17.30;99.90;;;;;;5057461;28;20055;-54
2022/10/22 12:32:14;;;;;;;10.00;3.78;;;17.20;99.90;;;;;;5052494;28;20032;-54
2022/10/22 12:34:48;;;;;;;10.05;3.72;;;17.20;99.90;;;;;;5056359;28;20039;-53
2022/10/22 12:37:15;;;;;;;11.23;3.65;;;17.20;99.90;;;;;;5056525;28;20083;-54
2022/10/22 12:39:41;;;;;;;8.02;3.65;;;17.10;99.90;;;;;;5053892;28;20086;-52
2022/10/22 12:42:15;;;;;;;8.13;3.35;;;17.10;99.90;;;;;;5056761;28;20056;-55
2022/10/22 12:44:42;;;;;;;7.57;3.10;;;17.00;99.90;;;;;;5062860;28;20081;-53
2022/10/22 12:47:11;;;;;;;;;;;17.00;99.90;;;;;;5065912;28;20131;-55
2022/10/22 12:49:41;;;;;;;7.50;3.30;;;17.00;99.90;;;;;;5064291;28;19928;-53
2022/10/22 12:52:13;;;;;;;13.82;3.40;;;16.90;99.90;;;;;;5064006;28;20048;-53
2022/10/22 12:54:39;;;;;;;8.73;2.67;;;16.90;99.90;;;;;;5064304;28;20044;-52
2022/10/22 12:57:09;;;;;;;12.38;3.40;;;16.90;99.90;;;;;;5062707;28;20519;-53